Time;durP1;ratioP1;P1;durP2;ratioP2;P2;SDS_P1;SDS_P2;PMS_P1;PMS_P2;Temp;Humidity;BMP_temperature;BMP_pressure;BME280_temperature;BME280_humidity;BME280_pressure;Samples;Min_cycle;Max_cycle;Signal;HPM_P1;HPM_P2
2023/10/28 00:00:38;;;;;;;3.70;0.30;;;11.50;1.00;;;;;;5009616;28;20400;-70
2023/10/28 00:03:04;;;;;;;3.80;0.30;;;11.50;1.00;;;;;;5010469;28;20393;-70
2023/10/28 00:05:31;;;;;;;3.63;0.25;;;11.50;1.00;;;;;;5009540;28;20401;-70
2023/10/28 00:07:56;;;;;;;3.60;0.30;;;11.50;1.00;;;;;;5008637;28;20428;-70
2023/10/28 00:10:22;;;;;;;3.70;0.30;;;11.60;1.00;;;;;;5010601;28;20393;-70
2023/10/28 00:12:51;;;;;;;3.80;0.40;;;11.60;1.00;;;;;;5008718;28;20436;-70
2023/10/28 00:15:19;;;;;;;3.60;0.20;;;11.50;1.00;;;;;;5011194;28;20412;-70
2023/10/28 00:17:47;;;;;;;4.30;0.40;;;11.60;1.00;;;;;;5008377;28;20407;-70
2023/10/28 00:20:17;;;;;;;3.60;0.20;;;11.50;1.00;;;;;;5009638;28;20397;-69
2023/10/28 00:22:46;;;;;;;3.70;0.30;;;11.40;1.00;;;;;;5008735;28;20389;-70
2023/10/28 00:25:16;;;;;;;3.60;0.28;;;11.50;1.00;;;;;;5010179;28;20866;-70
2023/10/28 00:27:43;;;;;;;3.63;0.28;;;11.40;1.00;;;;;;5009963;28;20424;-70
2023/10/28 00:30:11;;;;;;;3.60;0.30;;;11.30;1.00;;;;;;5009561;28;20406;-70
2023/10/28 00:32:37;;;;;;;3.70;0.20;;;11.30;1.00;;;;;;5010081;28;20420;-70
2023/10/28 00:35:07;;;;;;;3.60;0.20;;;11.30;1.00;;;;;;5010318;28;20392;-70
2023/10/28 00:37:34;;;;;;;3.80;0.30;;;11.30;1.00;;;;;;5010091;28;20479;-70
2023/10/28 00:40:00;;;;;;;3.80;0.30;;;11.20;1.00;;;;;;5009420;28;20408;-70
2023/10/28 00:42:26;;;;;;;3.60;0.20;;;11.10;1.00;;;;;;5009724;28;20436;-70
2023/10/28 00:44:54;;;;;;;4.00;0.50;;;11.20;1.00;;;;;;5009628;28;20848;-70
2023/10/28 00:47:23;;;;;;;3.60;0.40;;;11.10;1.00;;;;;;5009608;28;20400;-70
2023/10/28 00:49:50;;;;;;;3.60;0.30;;;11.20;1.00;;;;;;5009899;28;20487;-70
2023/10/28 00:52:19;;;;;;;3.90;0.40;;;11.20;1.00;;;;;;5008312;28;20393;-70
2023/10/28 00:54:47;;;;;;;3.50;0.20;;;11.20;1.00;;;;;;5009178;28;20400;-70
2023/10/28 00:57:17;;;;;;;3.60;0.30;;;11.20;1.00;;;;;;5009536;28;20408;-70
2023/10/28 00:59:43;;;;;;;3.90;0.30;;;11.20;1.00;;;;;;5009254;28;20868;-70
2023/10/28 01:02:10;;;;;;;3.90;0.30;;;11.00;1.00;;;;;;5011604;28;20397;-70
2023/10/28 01:04:36;;;;;;;3.50;0.20;;;11.10;1.00;;;;;;5029453;28;20384;-70
2023/10/28 01:07:02;;;;;;;4.30;0.60;;;11.10;1.00;;;;;;5030607;28;20489;-70
2023/10/28 01:09:28;;;;;;;3.60;0.20;;;11.00;1.00;;;;;;5031108;28;20465;-69
2023/10/28 01:11:55;;;;;;;3.60;0.20;;;10.90;1.00;;;;;;5031851;28;20932;-69
2023/10/28 01:14:21;;;;;;;3.80;0.40;;;10.90;1.00;;;;;;5032538;28;20529;-69
2023/10/28 01:16:49;;;;;;;4.30;0.50;;;10.90;1.00;;;;;;5032412;28;20922;-70
2023/10/28 01:19:15;;;;;;;3.70;0.30;;;11.00;1.00;;;;;;5030600;28;20442;-70
2023/10/28 01:21:41;;;;;;;3.63;0.40;;;11.00;1.00;;;;;;5032663;28;20873;-70
2023/10/28 01:24:07;;;;;;;3.60;0.30;;;11.00;1.00;;;;;;5032327;28;20482;-69
2023/10/28 01:26:32;;;;;;;3.60;0.30;;;11.00;1.00;;;;;;5016957;28;20810;-69
2023/10/28 01:29:00;;;;;;;3.60;0.30;;;10.90;1.00;;;;;;5010855;28;20432;-69
2023/10/28 01:31:26;;;;;;;4.90;0.50;;;10.90;1.00;;;;;;5012219;28;20401;-70
2023/10/28 01:33:52;;;;;;;3.60;0.30;;;10.90;1.00;;;;;;5020045;28;20411;-70
2023/10/28 01:36:17;;;;;;;5.40;0.40;;;10.80;1.00;;;;;;5030805;28;20439;-70
2023/10/28 01:38:44;;;;;;;3.60;0.30;;;10.80;1.00;;;;;;5032107;28;20889;-70
2023/10/28 01:41:13;;;;;;;3.70;0.40;;;10.80;1.00;;;;;;5031790;28;20382;-70
2023/10/28 01:43:40;;;;;;;3.90;0.40;;;10.80;1.00;;;;;;5030375;28;20406;-70
2023/10/28 01:46:06;;;;;;;3.60;0.30;;;10.80;1.00;;;;;;5031981;28;20383;-70
2023/10/28 01:48:31;;;;;;;3.70;0.30;;;10.80;1.00;;;;;;5031007;28;20419;-70
2023/10/28 01:50:57;;;;;;;3.60;0.30;;;10.80;1.00;;;;;;5018705;28;20438;-69
2023/10/28 01:53:25;;;;;;;5.50;0.40;;;10.80;1.00;;;;;;5010429;28;20452;-70
2023/10/28 01:55:50;;;;;;;3.70;0.40;;;10.80;1.00;;;;;;5011827;28;20452;-70
2023/10/28 01:58:17;;;;;;;3.60;0.30;;;10.80;1.00;;;;;;5010291;28;20428;-70
2023/10/28 02:00:43;;;;;;;4.00;0.30;;;10.90;1.00;;;;;;5017579;28;20399;-70
2023/10/28 02:03:11;;;;;;;3.90;0.60;;;10.90;1.00;;;;;;5031738;28;20473;-70
2023/10/28 02:05:37;;;;;;;3.70;0.40;;;11.00;1.00;;;;;;5031693;28;20553;-70
2023/10/28 02:08:03;;;;;;;4.00;0.40;;;10.90;1.00;;;;;;5031695;28;20431;-70
2023/10/28 02:10:29;;;;;;;3.60;0.40;;;11.00;1.00;;;;;;5031267;28;20513;-70
2023/10/28 02:12:54;;;;;;;3.50;0.30;;;11.10;1.00;;;;;;5031002;28;20486;-70
2023/10/28 02:15:20;;;;;;;3.60;0.30;;;11.20;1.00;;;;;;5031133;28;20734;-70
2023/10/28 02:17:46;;;;;;;3.67;0.30;;;11.20;1.00;;;;;;5029408;28;20478;-70
2023/10/28 02:20:13;;;;;;;3.60;0.30;;;11.30;1.00;;;;;;5030775;28;20464;-70
2023/10/28 02:22:39;;;;;;;5.20;0.90;;;11.20;1.00;;;;;;5031459;28;20850;-70
2023/10/28 02:25:05;;;;;;;8.00;0.60;;;11.20;1.00;;;;;;5031174;28;20406;-71
2023/10/28 02:27:33;;;;;;;3.70;0.40;;;11.20;1.00;;;;;;5029589;28;20403;-70
2023/10/28 02:29:58;;;;;;;3.60;0.30;;;11.10;1.00;;;;;;5030954;28;20434;-70
2023/10/28 02:32:24;;;;;;;5.43;0.43;;;11.10;1.00;;;;;;5030818;28;20446;-70
2023/10/28 02:34:49;;;;;;;3.70;0.30;;;11.20;1.00;;;;;;5030570;28;20889;-70
2023/10/28 02:37:15;;;;;;;3.83;0.50;;;11.10;1.00;;;;;;5029248;28;20485;-70
2023/10/28 02:39:41;;;;;;;3.60;0.30;;;11.20;1.00;;;;;;5028279;28;20766;-70
2023/10/28 02:42:06;;;;;;;5.80;0.70;;;11.20;1.00;;;;;;5010532;28;20397;-70
2023/10/28 02:44:33;;;;;;;3.60;0.30;;;11.10;1.00;;;;;;5015324;28;20896;-70
2023/10/28 02:46:59;;;;;;;3.97;0.40;;;11.10;1.00;;;;;;5029182;28;20460;-70
2023/10/28 02:49:25;;;;;;;3.70;0.30;;;11.10;1.00;;;;;;5027947;28;20419;-70
2023/10/28 02:51:51;;;;;;;4.00;0.40;;;11.10;1.00;;;;;;5030795;28;20399;-70
2023/10/28 02:54:16;;;;;;;3.60;0.30;;;11.00;1.00;;;;;;5029803;28;20395;-70
2023/10/28 02:56:42;;;;;;;3.80;0.50;;;10.90;1.00;;;;;;5029873;28;20395;-70
2023/10/28 02:59:08;;;;;;;4.30;1.00;;;10.90;1.00;;;;;;5030005;28;20390;-70
2023/10/28 03:01:36;;;;;;;3.60;0.40;;;10.90;1.00;;;;;;5031185;28;20857;-70
2023/10/28 03:04:03;;;;;;;3.70;0.40;;;10.90;1.00;;;;;;5031275;28;20387;-70
2023/10/28 03:06:28;;;;;;;3.60;0.30;;;10.90;1.00;;;;;;5029008;28;20477;-69
2023/10/28 03:08:54;;;;;;;5.40;0.67;;;10.90;1.00;;;;;;5030323;28;20438;-70
2023/10/28 03:11:20;;;;;;;6.60;0.50;;;10.90;1.00;;;;;;5029229;28;20403;-70
2023/10/28 03:13:46;;;;;;;3.70;0.40;;;10.90;1.00;;;;;;5028842;28;20411;-70
2023/10/28 03:16:11;;;;;;;4.30;0.50;;;10.90;1.00;;;;;;5018707;28;20407;-70
2023/10/28 03:18:37;;;;;;;3.70;0.40;;;11.00;1.00;;;;;;5030240;28;20900;-70
2023/10/28 03:21:04;;;;;;;3.70;0.40;;;10.90;1.00;;;;;;5030717;28;20396;-70
2023/10/28 03:23:30;;;;;;;3.97;0.40;;;10.90;1.00;;;;;;5029526;28;20706;-70
2023/10/28 03:25:55;;;;;;;3.70;0.40;;;11.00;1.00;;;;;;5029606;28;20399;-70
2023/10/28 03:28:21;;;;;;;3.80;0.40;;;11.10;1.00;;;;;;5029939;28;20480;-70
2023/10/28 03:30:46;;;;;;;7.70;0.70;;;11.00;1.00;;;;;;5029880;28;20391;-70
2023/10/28 03:33:12;;;;;;;5.60;0.90;;;11.00;1.00;;;;;;5028359;28;20410;-70
2023/10/28 03:35:37;;;;;;;4.07;0.70;;;11.10;1.00;;;;;;5029576;28;20435;-70
2023/10/28 03:38:03;;;;;;;7.30;0.60;;;11.10;1.00;;;;;;5030365;28;20387;-70
2023/10/28 03:40:28;;;;;;;5.50;0.75;;;11.20;1.00;;;;;;5028492;28;20453;-70
2023/10/28 03:42:54;;;;;;;3.65;0.40;;;11.20;1.00;;;;;;5029940;28;20415;-70
2023/10/28 03:45:20;;;;;;;3.80;0.50;;;11.30;1.00;;;;;;5030206;28;20490;-70
2023/10/28 03:47:45;;;;;;;5.18;0.60;;;11.30;1.00;;;;;;5023053;28;20898;-70
2023/10/28 03:50:11;;;;;;;3.70;0.40;;;11.20;1.00;;;;;;5009414;28;20488;-70
2023/10/28 03:52:37;;;;;;;5.40;0.70;;;11.30;1.00;;;;;;5025521;28;20767;-70
2023/10/28 03:55:03;;;;;;;3.90;0.70;;;11.30;1.00;;;;;;5010282;28;20408;-70
2023/10/28 03:57:29;;;;;;;4.28;0.60;;;11.30;1.00;;;;;;5022557;28;20501;-70
2023/10/28 03:59:54;;;;;;;3.70;0.30;;;11.30;1.00;;;;;;5028820;28;20479;-70
2023/10/28 04:02:20;;;;;;;6.80;1.10;;;11.30;1.00;;;;;;5028788;28;20403;-69
2023/10/28 04:04:45;;;;;;;4.10;1.00;;;11.30;1.00;;;;;;5028815;28;20391;-69
2023/10/28 04:07:11;;;;;;;4.00;0.80;;;11.30;1.00;;;;;;5030140;28;20468;-69
2023/10/28 04:09:37;;;;;;;4.00;0.50;;;11.30;1.00;;;;;;5029707;28;20778;-69
2023/10/28 04:12:05;;;;;;;3.97;0.55;;;11.30;1.00;;;;;;5030638;28;20387;-69
2023/10/28 04:14:34;;;;;;;4.10;0.57;;;11.30;1.00;;;;;;5027043;28;20465;-69
2023/10/28 04:17:00;;;;;;;3.80;0.50;;;11.40;1.00;;;;;;5027639;28;20391;-69
2023/10/28 04:19:26;;;;;;;4.00;0.50;;;11.40;1.00;;;;;;5027496;28;20481;-69
2023/10/28 04:21:51;;;;;;;4.40;0.50;;;11.40;1.00;;;;;;5027022;28;20900;-70
2023/10/28 04:24:18;;;;;;;4.53;0.57;;;11.50;1.00;;;;;;5018477;28;20396;-70
2023/10/28 04:26:44;;;;;;;4.13;0.70;;;11.40;1.00;;;;;;5009589;28;20458;-70
2023/10/28 04:29:09;;;;;;;5.30;1.30;;;11.50;1.00;;;;;;5020745;28;20422;-70
2023/10/28 04:31:35;;;;;;;5.30;0.50;;;11.40;1.00;;;;;;5029691;28;20391;-70
2023/10/28 04:34:02;;;;;;;4.40;0.70;;;11.30;1.00;;;;;;5021270;28;20412;-69
2023/10/28 04:36:28;;;;;;;3.80;0.50;;;11.40;1.00;;;;;;5028816;28;20418;-70
2023/10/28 04:38:53;;;;;;;6.72;0.93;;;11.30;1.00;;;;;;5024263;28;20387;-69
2023/10/28 04:41:19;;;;;;;6.00;0.80;;;11.40;1.00;;;;;;5019713;28;20428;-69
2023/10/28 04:43:45;;;;;;;6.10;0.60;;;11.30;1.00;;;;;;5022372;28;20501;-70
2023/10/28 04:46:10;;;;;;;4.10;0.50;;;11.30;1.00;;;;;;5022044;28;20407;-70
2023/10/28 04:48:38;;;;;;;4.10;0.68;;;11.20;1.00;;;;;;5023111;28;20511;-70
2023/10/28 04:51:04;;;;;;;6.57;1.00;;;11.10;1.00;;;;;;5020739;28;20484;-70
2023/10/28 04:53:30;;;;;;;4.20;0.60;;;11.10;1.00;;;;;;5025424;28;20407;-70
2023/10/28 04:55:56;;;;;;;4.83;0.70;;;11.00;1.00;;;;;;5022628;28;20449;-70
2023/10/28 04:58:24;;;;;;;3.80;0.50;;;11.00;1.00;;;;;;5023154;28;20487;-70
2023/10/28 05:00:49;;;;;;;4.07;0.60;;;11.00;1.00;;;;;;5024009;28;20809;-70
2023/10/28 05:03:15;;;;;;;5.80;1.00;;;11.00;1.00;;;;;;5019364;28;20395;-70
2023/10/28 05:05:40;;;;;;;4.70;0.70;;;11.00;1.00;;;;;;5023468;28;20423;-70
2023/10/28 05:08:07;;;;;;;4.23;0.70;;;11.00;1.00;;;;;;5021159;28;20448;-70
2023/10/28 05:10:33;;;;;;;4.20;0.70;;;11.00;1.00;;;;;;5023442;28;20421;-70
2023/10/28 05:12:59;;;;;;;6.00;0.60;;;11.10;1.00;;;;;;5021667;28;20440;-70
2023/10/28 05:15:25;;;;;;;8.90;0.60;;;11.10;1.00;;;;;;5003205;28;20419;-70
2023/10/28 05:17:50;;;;;;;3.80;0.40;;;11.10;1.00;;;;;;5022904;28;20870;-70
2023/10/28 05:20:16;;;;;;;3.90;0.40;;;11.10;1.00;;;;;;5020573;28;20401;-70
2023/10/28 05:22:41;;;;;;;4.73;0.70;;;11.10;1.00;;;;;;5027328;28;20490;-70
2023/10/28 05:25:08;;;;;;;3.70;0.30;;;11.20;1.00;;;;;;5020482;28;20883;-70
2023/10/28 05:27:34;;;;;;;3.60;0.30;;;11.20;1.00;;;;;;5019770;28;20405;-69
2023/10/28 05:30:00;;;;;;;5.20;0.50;;;11.10;1.00;;;;;;5027877;28;20971;-70
2023/10/28 05:32:26;;;;;;;4.30;0.60;;;11.00;1.00;;;;;;5013117;28;20415;-69
2023/10/28 05:34:51;;;;;;;6.30;0.50;;;10.90;1.00;;;;;;5022649;28;20813;-70
2023/10/28 05:37:17;;;;;;;4.10;0.53;;;10.90;1.00;;;;;;5031369;28;20495;-69
2023/10/28 05:39:42;;;;;;;5.90;0.40;;;11.00;1.00;;;;;;5029164;28;20401;-69
2023/10/28 05:42:10;;;;;;;6.50;1.00;;;10.90;1.00;;;;;;5029885;28;20411;-69
2023/10/28 05:44:36;;;;;;;4.80;0.60;;;10.90;1.00;;;;;;5026365;28;20404;-69
2023/10/28 05:47:04;;;;;;;6.20;0.60;;;10.90;1.00;;;;;;5018700;28;20491;-70
2023/10/28 05:49:33;;;;;;;4.70;0.80;;;10.90;1.00;;;;;;4994628;28;20432;-70
2023/10/28 05:51:58;;;;;;;4.18;0.43;;;10.90;1.00;;;;;;5018568;28;20818;-70
2023/10/28 05:54:24;;;;;;;3.90;0.50;;;10.90;1.00;;;;;;5012917;28;20507;-70
2023/10/28 05:56:49;;;;;;;3.90;0.40;;;11.00;1.00;;;;;;5030761;28;20395;-70
2023/10/28 05:59:15;;;;;;;3.80;0.40;;;10.90;1.00;;;;;;5031162;28;20391;-70
2023/10/28 06:01:41;;;;;;;4.88;0.52;;;10.90;1.00;;;;;;5026215;28;20578;-70
2023/10/28 06:04:07;;;;;;;4.32;0.68;;;10.90;1.00;;;;;;5025520;28;20502;-71
2023/10/28 06:06:33;;;;;;;4.70;0.80;;;10.90;1.00;;;;;;5028503;28;20434;-70
2023/10/28 06:08:59;;;;;;;3.83;0.30;;;11.10;1.00;;;;;;5017037;28;20450;-71
2023/10/28 06:11:24;;;;;;;5.50;0.70;;;11.10;1.00;;;;;;5027897;28;20394;-71
2023/10/28 06:13:51;;;;;;;3.90;0.60;;;11.20;1.00;;;;;;5010943;28;20891;-71
2023/10/28 06:16:18;;;;;;;4.50;0.40;;;11.30;1.00;;;;;;5014240;28;20409;-71
2023/10/28 06:18:44;;;;;;;3.80;0.40;;;11.20;1.00;;;;;;5020027;28;20396;-71
2023/10/28 06:21:11;;;;;;;7.70;0.63;;;11.30;1.00;;;;;;5010620;28;20415;-72
2023/10/28 06:23:39;;;;;;;4.93;0.38;;;11.30;1.00;;;;;;5016928;28;20410;-71
2023/10/28 06:26:05;;;;;;;4.60;0.90;;;11.30;1.00;;;;;;5017489;28;20419;-71
2023/10/28 06:28:30;;;;;;;5.40;0.90;;;11.40;1.00;;;;;;5023318;28;20910;-71
2023/10/28 06:30:58;;;;;;;5.60;0.50;;;11.40;1.00;;;;;;5012096;28;20488;-71
2023/10/28 06:33:24;;;;;;;5.00;0.50;;;11.50;1.00;;;;;;5023344;28;20383;-71
2023/10/28 06:35:51;;;;;;;4.10;0.50;;;11.50;1.00;;;;;;5031488;28;20391;-71
2023/10/28 06:38:20;;;;;;;3.92;0.40;;;11.50;1.00;;;;;;5031377;28;20398;-71
2023/10/28 06:40:47;;;;;;;6.60;0.60;;;11.60;1.00;;;;;;5031728;28;20429;-71
2023/10/28 06:43:14;;;;;;;6.30;0.95;;;11.60;1.00;;;;;;5016026;28;20801;-71
2023/10/28 06:45:40;;;;;;;4.65;0.60;;;11.60;1.00;;;;;;5024748;28;20405;-71
2023/10/28 06:48:06;;;;;;;4.20;0.60;;;11.70;1.00;;;;;;5031500;28;20434;-71
2023/10/28 06:50:34;;;;;;;3.90;0.40;;;11.70;1.00;;;;;;5030654;28;20395;-71
2023/10/28 06:53:00;;;;;;;6.00;0.70;;;11.70;1.00;;;;;;5031131;28;20383;-71
2023/10/28 06:55:27;;;;;;;4.20;0.70;;;11.60;1.00;;;;;;5030913;28;20434;-71
2023/10/28 06:57:52;;;;;;;7.53;0.50;;;11.60;1.00;;;;;;5031319;28;20481;-71
2023/10/28 07:00:21;;;;;;;4.70;0.70;;;11.70;1.00;;;;;;5030994;28;20509;-71
2023/10/28 07:02:47;;;;;;;4.40;0.70;;;11.70;1.00;;;;;;5031152;28;20403;-70
2023/10/28 07:05:14;;;;;;;4.40;0.63;;;11.70;1.00;;;;;;5029683;28;20462;-70
2023/10/28 07:07:40;;;;;;;4.20;0.60;;;11.90;1.00;;;;;;5011245;28;20480;-71
2023/10/28 07:10:07;;;;;;;6.70;0.80;;;12.00;1.00;;;;;;5010096;28;20462;-71
2023/10/28 07:12:33;;;;;;;3.90;0.50;;;12.30;1.00;;;;;;5011773;28;20397;-71
2023/10/28 07:14:59;;;;;;;4.60;0.77;;;12.30;1.00;;;;;;5013088;28;20532;-70
2023/10/28 07:17:25;;;;;;;5.20;0.50;;;12.40;1.00;;;;;;5025357;28;20833;-70
2023/10/28 07:19:54;;;;;;;4.97;0.60;;;12.50;1.00;;;;;;5029547;28;20387;-71
2023/10/28 07:22:20;;;;;;;7.10;0.70;;;12.60;1.00;;;;;;5011081;28;20397;-71
2023/10/28 07:24:47;;;;;;;4.63;0.70;;;12.70;1.00;;;;;;5009253;28;20424;-70
2023/10/28 07:27:12;;;;;;;4.00;0.47;;;12.60;1.00;;;;;;5011340;28;20822;-70
2023/10/28 07:29:38;;;;;;;3.80;0.40;;;12.60;1.00;;;;;;5010976;28;20429;-70
2023/10/28 07:32:05;;;;;;;4.47;0.70;;;12.70;1.00;;;;;;5011794;28;20421;-70
2023/10/28 07:34:31;;;;;;;4.50;0.40;;;13.10;1.00;;;;;;5029431;28;20490;-71
2023/10/28 07:37:00;;;;;;;4.80;0.70;;;13.20;1.00;;;;;;5030257;28;20399;-70
2023/10/28 07:39:26;;;;;;;5.30;0.70;;;13.20;1.00;;;;;;5029029;28;20449;-71
2023/10/28 07:41:53;;;;;;;4.18;0.60;;;13.10;1.00;;;;;;5029305;28;21201;-71
2023/10/28 07:44:19;;;;;;;4.80;0.50;;;13.10;1.00;;;;;;5030218;28;20418;-71
2023/10/28 07:46:44;;;;;;;5.50;0.70;;;13.10;1.00;;;;;;5031382;28;20390;-71
2023/10/28 07:49:10;;;;;;;4.30;0.50;;;13.10;1.00;;;;;;5023974;28;20471;-71
2023/10/28 07:51:36;;;;;;;4.10;0.50;;;13.30;1.00;;;;;;5010522;28;20384;-71
2023/10/28 07:54:02;;;;;;;4.10;0.50;;;14.20;1.00;;;;;;5010607;28;20425;-71
2023/10/28 07:56:29;;;;;;;4.23;0.50;;;15.00;1.00;;;;;;5010603;28;20388;-72
2023/10/28 07:58:59;;;;;;;4.53;0.70;;;14.90;1.00;;;;;;5010570;28;20385;-70
2023/10/28 08:01:29;;;;;;;4.72;0.80;;;14.50;1.00;;;;;;5008925;28;20397;-71
2023/10/28 08:03:58;;;;;;;4.40;0.60;;;14.40;1.00;;;;;;5021440;28;20407;-71
2023/10/28 08:06:27;;;;;;;4.50;0.77;;;14.60;1.00;;;;;;5010309;28;20391;-71
2023/10/28 08:08:53;;;;;;;4.40;0.90;;;15.10;1.00;;;;;;5017876;28;20459;-72
2023/10/28 08:11:23;;;;;;;5.00;0.70;;;16.20;1.00;;;;;;5027585;28;20399;-71
2023/10/28 08:13:49;;;;;;;4.40;0.50;;;17.30;1.00;;;;;;5009212;28;20408;-70
2023/10/28 08:16:18;;;;;;;4.37;0.50;;;16.50;99.90;;;;;;5007730;28;20492;-70
2023/10/28 08:18:45;;;;;;;4.20;0.40;;;15.50;99.90;;;;;;5010438;28;20399;-71
2023/10/28 08:21:19;;;;;;;5.80;0.57;;;15.20;99.90;;;;;;5023867;28;20407;-71
2023/10/28 08:23:44;;;;;;;4.93;0.80;;;15.20;99.90;;;;;;5016543;28;20431;-71
2023/10/28 08:26:11;;;;;;;4.50;0.50;;;16.10;1.00;;;;;;5016872;28;20407;-71
2023/10/28 08:28:37;;;;;;;4.50;0.70;;;17.10;1.00;;;;;;5016580;28;20420;-71
2023/10/28 08:31:10;;;;;;;6.10;0.60;;;18.00;1.00;;;;;;5022299;28;20400;-70
2023/10/28 08:33:37;;;;;;;5.35;0.90;;;18.70;1.00;;;;;;5025931;28;20431;-71
2023/10/28 08:36:04;;;;;;;6.90;0.80;;;18.50;1.00;;;;;;5025932;28;20418;-71
2023/10/28 08:38:35;;;;;;;4.20;0.50;;;17.70;99.90;;;;;;5028943;28;20427;-71
2023/10/28 08:41:02;;;;;;;6.00;0.60;;;16.50;99.90;;;;;;5027007;28;20758;-71
2023/10/28 08:43:28;;;;;;;5.07;0.68;;;15.70;99.90;;;;;;5036890;28;20395;-71
2023/10/28 08:45:54;;;;;;;4.90;0.90;;;15.70;99.90;;;;;;5014767;28;20436;-71
2023/10/28 08:48:22;;;;;;;4.50;0.60;;;16.50;1.00;;;;;;5007801;28;20423;-71
2023/10/28 08:50:59;;;;;;;4.55;0.70;;;16.70;1.00;;;;;;5010047;28;20385;-71
2023/10/28 08:53:25;;;;;;;5.60;0.80;;;18.00;1.00;;;;;;5027817;28;20861;-71
2023/10/28 08:55:52;;;;;;;5.20;0.70;;;19.00;1.00;;;;;;5019979;28;20449;-71
2023/10/28 08:58:19;;;;;;;6.00;1.00;;;19.90;1.00;;;;;;5018879;28;20392;-70
2023/10/28 09:00:50;;;;;;;5.27;0.70;;;20.10;1.00;;;;;;5018244;28;20444;-70
2023/10/28 09:03:20;;;;;;;4.38;0.40;;;20.10;1.00;;;;;;5016569;28;20447;-71
2023/10/28 09:05:48;;;;;;;5.78;0.70;;;20.50;1.00;;;;;;5019686;28;20896;-71
2023/10/28 09:08:14;;;;;;;5.47;0.75;;;20.30;1.00;;;;;;5026137;28;20956;-70
2023/10/28 09:10:45;;;;;;;5.20;0.60;;;20.30;1.00;;;;;;5007604;28;20504;-71
2023/10/28 09:13:12;;;;;;;4.65;0.98;;;19.90;1.00;;;;;;5007927;28;20405;-71
2023/10/28 09:15:37;;;;;;;5.80;0.70;;;19.70;1.00;;;;;;5026370;28;20411;-71
2023/10/28 09:18:03;;;;;;;4.53;0.80;;;19.30;1.00;;;;;;5027967;28;20384;-71
2023/10/28 09:20:29;;;;;;;4.70;0.60;;;18.70;1.00;;;;;;5029023;28;20383;-71
2023/10/28 09:22:55;;;;;;;4.40;0.60;;;19.10;1.00;;;;;;5028908;28;20394;-71
2023/10/28 09:25:21;;;;;;;6.95;0.60;;;19.10;1.00;;;;;;5026294;28;20434;-71
2023/10/28 09:27:47;;;;;;;4.65;0.80;;;18.80;1.00;;;;;;5030602;28;20390;-72
2023/10/28 09:30:15;;;;;;;5.80;1.00;;;18.20;1.00;;;;;;5032455;28;20434;-72
2023/10/28 09:32:47;;;;;;;4.95;0.60;;;18.60;1.00;;;;;;5030764;28;20734;-72
2023/10/28 09:35:14;;;;;;;4.60;0.60;;;19.00;1.00;;;;;;5032156;28;20478;-72
2023/10/28 09:37:41;;;;;;;5.47;0.60;;;19.40;1.00;;;;;;5031908;28;20470;-72
2023/10/28 09:40:10;;;;;;;5.80;0.60;;;19.70;1.00;;;;;;5032306;28;20403;-71
2023/10/28 09:42:37;;;;;;;5.35;0.55;;;19.60;1.00;;;;;;5030453;28;20482;-71
2023/10/28 09:45:09;;;;;;;4.30;0.60;;;19.60;1.00;;;;;;5031271;28;20901;-71
2023/10/28 09:47:46;;;;;;;4.50;0.60;;;19.20;1.00;;;;;;5030747;28;20387;-71
2023/10/28 09:50:14;;;;;;;4.50;0.50;;;18.80;1.00;;;;;;5032388;28;20530;-71
2023/10/28 09:52:42;;;;;;;7.90;1.30;;;18.30;1.00;;;;;;5031638;28;20492;-71
2023/10/28 09:55:12;;;;;;;4.60;0.50;;;17.60;1.00;;;;;;5031744;28;20934;-71
2023/10/28 09:57:39;;;;;;;4.97;0.77;;;17.30;1.00;;;;;;5031524;28;20427;-71
2023/10/28 10:00:10;;;;;;;5.50;0.50;;;17.00;1.00;;;;;;5032012;28;20484;-71
2023/10/28 10:03:06;;;;;;;4.60;0.70;;;17.10;1.00;;;;;;5031369;28;20753;-70
2023/10/28 10:05:42;;;;;;;5.28;0.80;;;17.10;1.00;;;;;;5031663;28;20399;-70
2023/10/28 10:08:18;;;;;;;4.50;0.83;;;17.20;1.00;;;;;;5031520;28;20453;-71
2023/10/28 10:10:45;;;;;;;7.10;0.60;;;16.90;1.00;;;;;;5031308;28;20390;-71
2023/10/28 10:13:11;;;;;;;5.40;0.68;;;16.90;1.00;;;;;;5031348;28;20407;-71
2023/10/28 10:15:42;;;;;;;4.60;0.50;;;17.20;1.00;;;;;;5029672;28;20410;-71
2023/10/28 10:18:10;;;;;;;5.90;1.00;;;17.70;1.00;;;;;;5011623;28;20737;-70
2023/10/28 10:20:36;;;;;;;5.28;0.98;;;17.80;1.00;;;;;;5011637;28;20438;-71
2023/10/28 10:23:03;;;;;;;5.40;0.80;;;18.10;1.00;;;;;;5010875;28;20397;-71
2023/10/28 10:25:33;;;;;;;4.50;0.70;;;18.70;1.00;;;;;;5009961;28;20401;-71
2023/10/28 10:28:23;;;;;;;5.38;0.80;;;19.10;1.00;;;;;;5011034;28;20420;-71
2023/10/28 10:30:48;;;;;;;5.80;0.60;;;18.90;1.00;;;;;;5011263;28;20389;-70
2023/10/28 10:33:24;;;;;;;5.70;0.70;;;18.00;1.00;;;;;;5010299;28;20397;-70
2023/10/28 10:35:50;;;;;;;4.97;1.05;;;17.40;1.00;;;;;;5010081;28;20421;-71
2023/10/28 10:38:16;;;;;;;6.50;0.90;;;17.10;1.00;;;;;;5009992;28;20425;-70
2023/10/28 10:40:41;;;;;;;4.30;0.57;;;16.70;1.00;;;;;;5010824;28;20454;-70
2023/10/28 10:43:09;;;;;;;5.03;0.80;;;16.70;1.00;;;;;;5010864;28;20435;-70
2023/10/28 10:45:35;;;;;;;4.90;0.80;;;17.10;1.00;;;;;;5010936;28;20449;-70
2023/10/28 10:48:07;;;;;;;4.60;0.60;;;17.20;1.00;;;;;;5010045;28;20968;-70
2023/10/28 10:50:34;;;;;;;7.70;1.30;;;17.40;1.00;;;;;;5010229;28;20401;-71
2023/10/28 10:53:02;;;;;;;7.95;1.38;;;17.40;1.00;;;;;;5010152;28;20919;-71
2023/10/28 10:55:28;;;;;;;5.88;0.80;;;16.80;1.00;;;;;;5010949;28;20917;-71
2023/10/28 10:57:54;;;;;;;6.53;1.17;;;16.80;1.00;;;;;;5010938;28;20385;-71
2023/10/28 11:00:20;;;;;;;8.70;1.80;;;16.70;1.00;;;;;;5009786;28;20490;-71
2023/10/28 11:02:49;;;;;;;5.30;1.00;;;16.60;1.00;;;;;;5009943;28;20396;-71
2023/10/28 11:05:15;;;;;;;9.60;1.50;;;16.50;1.00;;;;;;5011574;28;20389;-71
2023/10/28 11:07:45;;;;;;;6.20;0.87;;;16.00;1.00;;;;;;5009178;28;20495;-71
2023/10/28 11:10:11;;;;;;;4.65;0.90;;;15.70;1.00;;;;;;5011261;28;20415;-71
2023/10/28 11:12:38;;;;;;;4.80;0.70;;;15.60;1.00;;;;;;5009809;28;20389;-71
2023/10/28 11:15:04;;;;;;;6.10;0.80;;;15.60;1.00;;;;;;5010910;28;20753;-71
2023/10/28 11:17:30;;;;;;;4.72;0.57;;;15.60;1.00;;;;;;5027438;28;20461;-71
2023/10/28 11:19:58;;;;;;;4.70;0.80;;;15.50;1.00;;;;;;5030448;28;20431;-71
2023/10/28 11:22:25;;;;;;;6.40;0.80;;;15.70;1.00;;;;;;5029999;28;20810;-71
2023/10/28 11:24:58;;;;;;;5.77;1.07;;;15.60;1.00;;;;;;5030242;28;20874;-71
2023/10/28 11:27:25;;;;;;;5.40;0.60;;;15.80;1.00;;;;;;5029147;28;20403;-71
2023/10/28 11:29:51;;;;;;;5.90;1.10;;;15.40;1.00;;;;;;5029928;28;20454;-71
2023/10/28 11:32:21;;;;;;;6.35;0.60;;;15.30;1.00;;;;;;5030368;28;20957;-71
2023/10/28 11:34:47;;;;;;;5.82;0.90;;;15.50;1.00;;;;;;5029750;28;20842;-71
2023/10/28 11:37:13;;;;;;;6.30;0.80;;;15.60;1.00;;;;;;5029085;28;20383;-71
2023/10/28 11:39:40;;;;;;;6.72;1.05;;;15.60;1.00;;;;;;5029903;28;20398;-71
2023/10/28 11:42:17;;;;;;;6.17;1.00;;;15.60;1.00;;;;;;5030060;28;20429;-71
2023/10/28 11:44:48;;;;;;;5.97;1.15;;;15.60;1.00;;;;;;5030042;28;20387;-71
2023/10/28 11:47:14;;;;;;;4.50;0.70;;;15.60;1.00;;;;;;5029736;28;20745;-71
2023/10/28 11:49:39;;;;;;;6.10;0.50;;;15.60;1.00;;;;;;5027858;28;20423;-71
2023/10/28 11:52:05;;;;;;;6.40;0.70;;;15.50;1.00;;;;;;5029484;28;20398;-71
2023/10/28 11:54:32;;;;;;;4.70;0.70;;;15.50;1.00;;;;;;5030570;28;20414;-71
2023/10/28 11:56:57;;;;;;;5.80;0.90;;;15.50;1.00;;;;;;5028106;28;20424;-71
2023/10/28 11:59:24;;;;;;;8.40;0.80;;;15.70;1.00;;;;;;5029751;28;20470;-71
2023/10/28 12:01:50;;;;;;;6.65;0.85;;;15.80;1.00;;;;;;5028199;28;20399;-71
2023/10/28 12:04:16;;;;;;;8.93;0.90;;;15.90;1.00;;;;;;5029377;28;20403;-71
2023/10/28 12:06:42;;;;;;;4.40;0.70;;;15.90;1.00;;;;;;5029597;28;20406;-71
2023/10/28 12:09:11;;;;;;;8.70;1.20;;;15.90;1.00;;;;;;5028074;28;20762;-71
2023/10/28 12:11:38;;;;;;;6.80;0.70;;;16.00;1.00;;;;;;5029157;28;20844;-71
2023/10/28 12:14:04;;;;;;;6.17;1.17;;;16.00;1.00;;;;;;5030065;28;20403;-71
2023/10/28 12:16:31;;;;;;;4.93;0.70;;;16.00;1.00;;;;;;5020585;28;20466;-71
2023/10/28 12:18:57;;;;;;;5.47;1.02;;;15.90;1.00;;;;;;5009594;28;20409;-71
2023/10/28 12:21:25;;;;;;;5.10;0.90;;;15.90;1.00;;;;;;5008424;28;20787;-71
2023/10/28 12:23:50;;;;;;;4.97;0.88;;;15.60;1.00;;;;;;5010097;28;20441;-71
2023/10/28 12:26:17;;;;;;;5.80;0.70;;;15.30;1.00;;;;;;5008191;28;20397;-71
2023/10/28 12:28:43;;;;;;;4.53;0.57;;;15.30;1.00;;;;;;5009502;28;20420;-71
2023/10/28 12:31:08;;;;;;;5.93;0.80;;;15.20;1.00;;;;;;5009857;28;20396;-71
2023/10/28 12:33:34;;;;;;;5.40;0.80;;;15.10;1.00;;;;;;5009804;28;20432;-71
2023/10/28 12:36:00;;;;;;;4.50;0.70;;;15.00;1.00;;;;;;5008089;28;20981;-71
2023/10/28 12:38:26;;;;;;;4.80;0.80;;;15.20;1.00;;;;;;5013836;28;20388;-71
2023/10/28 12:40:52;;;;;;;4.70;1.00;;;15.30;1.00;;;;;;5016814;28;20421;-71
2023/10/28 12:43:17;;;;;;;5.40;0.77;;;15.40;1.00;;;;;;5015844;28;20408;-71
2023/10/28 12:45:43;;;;;;;7.70;1.20;;;15.40;1.00;;;;;;5015171;28;20392;-71
2023/10/28 12:48:08;;;;;;;5.57;0.60;;;15.30;1.00;;;;;;5012132;28;20782;-71
2023/10/28 12:50:34;;;;;;;4.30;0.67;;;15.30;1.00;;;;;;5010505;28;20408;-71
2023/10/28 12:52:59;;;;;;;5.00;0.70;;;15.30;1.00;;;;;;5011027;28;20397;-71
2023/10/28 12:55:25;;;;;;;5.15;0.90;;;15.20;1.00;;;;;;5012658;28;20475;-71